sensor_id;sensor_type;location;lat;lon;timestamp;P1;durP1;ratioP1;P2;durP2;ratioP2
7703;SDS011;3894;49.700;10.770;2023-04-21T00:02:23;20.77;;;10.38;;
7703;SDS011;3894;49.700;10.770;2023-04-21T00:04:49;19.70;;;8.98;;
7703;SDS011;3894;49.700;10.770;2023-04-21T00:07:15;18.55;;;9.88;;
7703;SDS011;3894;49.700;10.770;2023-04-21T00:09:41;21.95;;;8.90;;
7703;SDS011;3894;49.700;10.770;2023-04-21T00:12:07;16.70;;;7.93;;
7703;SDS011;3894;49.700;10.770;2023-04-21T00:14:33;20.33;;;9.32;;
7703;SDS011;3894;49.700;10.770;2023-04-21T00:16:58;24.80;;;10.98;;
7703;SDS011;3894;49.700;10.770;2023-04-21T00:19:24;21.23;;;10.10;;
7703;SDS011;3894;49.700;10.770;2023-04-21T00:21:50;19.90;;;8.85;;
7703;SDS011;3894;49.700;10.770;2023-04-21T00:24:22;21.35;;;9.63;;
7703;SDS011;3894;49.700;10.770;2023-04-21T00:26:48;20.80;;;8.18;;
7703;SDS011;3894;49.700;10.770;2023-04-21T00:29:14;16.90;;;8.93;;
7703;SDS011;3894;49.700;10.770;2023-04-21T00:31:42;18.65;;;8.23;;
7703;SDS011;3894;49.700;10.770;2023-04-21T00:34:07;19.77;;;8.80;;
7703;SDS011;3894;49.700;10.770;2023-04-21T00:36:33;19.42;;;9.80;;
7703;SDS011;3894;49.700;10.770;2023-04-21T00:38:59;18.90;;;9.00;;
7703;SDS011;3894;49.700;10.770;2023-04-21T00:41:25;20.05;;;9.27;;
7703;SDS011;3894;49.700;10.770;2023-04-21T00:46:28;17.88;;;8.88;;
7703;SDS011;3894;49.700;10.770;2023-04-21T00:48:53;20.38;;;9.55;;
7703;SDS011;3894;49.700;10.770;2023-04-21T00:51:19;17.70;;;8.80;;
7703;SDS011;3894;49.700;10.770;2023-04-21T00:53:45;16.98;;;7.80;;
7703;SDS011;3894;49.700;10.770;2023-04-21T00:56:11;20.23;;;8.73;;
7703;SDS011;3894;49.700;10.770;2023-04-21T00:58:37;17.58;;;7.90;;
7703;SDS011;3894;49.700;10.770;2023-04-21T01:01:07;18.75;;;8.43;;
7703;SDS011;3894;49.700;10.770;2023-04-21T01:03:33;18.92;;;8.60;;
7703;SDS011;3894;49.700;10.770;2023-04-21T01:05:59;19.55;;;8.05;;
7703;SDS011;3894;49.700;10.770;2023-04-21T01:08:25;19.02;;;8.60;;
7703;SDS011;3894;49.700;10.770;2023-04-21T01:10:52;18.60;;;8.73;;
7703;SDS011;3894;49.700;10.770;2023-04-21T01:13:18;19.42;;;7.88;;
7703;SDS011;3894;49.700;10.770;2023-04-21T01:15:48;19.42;;;8.05;;
7703;SDS011;3894;49.700;10.770;2023-04-21T01:18:14;17.20;;;9.07;;
7703;SDS011;3894;49.700;10.770;2023-04-21T01:20:42;16.85;;;8.60;;
7703;SDS011;3894;49.700;10.770;2023-04-21T01:23:08;17.33;;;8.45;;
7703;SDS011;3894;49.700;10.770;2023-04-21T01:25:35;20.52;;;8.85;;
7703;SDS011;3894;49.700;10.770;2023-04-21T01:28:01;18.55;;;9.15;;
7703;SDS011;3894;49.700;10.770;2023-04-21T01:30:27;20.10;;;8.75;;
7703;SDS011;3894;49.700;10.770;2023-04-21T01:32:52;19.95;;;8.65;;
7703;SDS011;3894;49.700;10.770;2023-04-21T01:35:18;19.35;;;9.48;;
7703;SDS011;3894;49.700;10.770;2023-04-21T01:37:44;18.35;;;8.88;;
7703;SDS011;3894;49.700;10.770;2023-04-21T01:40:10;21.85;;;9.27;;
7703;SDS011;3894;49.700;10.770;2023-04-21T01:42:37;18.70;;;8.07;;
7703;SDS011;3894;49.700;10.770;2023-04-21T01:45:04;18.20;;;9.15;;
7703;SDS011;3894;49.700;10.770;2023-04-21T01:47:30;20.15;;;8.88;;
7703;SDS011;3894;49.700;10.770;2023-04-21T01:49:56;17.50;;;8.27;;
7703;SDS011;3894;49.700;10.770;2023-04-21T01:52:22;17.92;;;8.88;;
7703;SDS011;3894;49.700;10.770;2023-04-21T01:54:47;22.10;;;9.30;;
7703;SDS011;3894;49.700;10.770;2023-04-21T01:57:14;19.83;;;9.30;;
7703;SDS011;3894;49.700;10.770;2023-04-21T01:59:40;18.63;;;9.32;;
7703;SDS011;3894;49.700;10.770;2023-04-21T02:02:05;18.40;;;9.60;;
7703;SDS011;3894;49.700;10.770;2023-04-21T02:04:31;18.60;;;8.88;;
7703;SDS011;3894;49.700;10.770;2023-04-21T02:06:57;22.00;;;9.98;;
7703;SDS011;3894;49.700;10.770;2023-04-21T02:09:22;22.90;;;11.25;;
7703;SDS011;3894;49.700;10.770;2023-04-21T02:11:48;17.90;;;8.35;;
7703;SDS011;3894;49.700;10.770;2023-04-21T02:14:14;21.08;;;8.40;;
7703;SDS011;3894;49.700;10.770;2023-04-21T02:16:40;20.15;;;9.73;;
7703;SDS011;3894;49.700;10.770;2023-04-21T02:19:05;20.65;;;9.45;;
7703;SDS011;3894;49.700;10.770;2023-04-21T02:21:31;19.67;;;8.73;;
7703;SDS011;3894;49.700;10.770;2023-04-21T02:23:57;19.70;;;9.10;;
7703;SDS011;3894;49.700;10.770;2023-04-21T02:26:23;21.02;;;9.23;;
7703;SDS011;3894;49.700;10.770;2023-04-21T02:28:49;20.45;;;9.18;;
7703;SDS011;3894;49.700;10.770;2023-04-21T02:31:18;20.20;;;9.07;;
7703;SDS011;3894;49.700;10.770;2023-04-21T02:33:44;21.17;;;9.98;;
7703;SDS011;3894;49.700;10.770;2023-04-21T02:36:09;20.88;;;9.00;;
7703;SDS011;3894;49.700;10.770;2023-04-21T02:38:35;18.92;;;8.15;;
7703;SDS011;3894;49.700;10.770;2023-04-21T02:41:01;21.95;;;9.93;;
7703;SDS011;3894;49.700;10.770;2023-04-21T02:43:26;16.20;;;7.88;;
7703;SDS011;3894;49.700;10.770;2023-04-21T02:45:53;20.90;;;8.98;;
7703;SDS011;3894;49.700;10.770;2023-04-21T02:48:18;17.35;;;8.60;;
7703;SDS011;3894;49.700;10.770;2023-04-21T02:50:47;20.05;;;8.85;;
7703;SDS011;3894;49.700;10.770;2023-04-21T02:53:14;18.95;;;8.63;;
7703;SDS011;3894;49.700;10.770;2023-04-21T02:55:40;18.70;;;8.52;;
7703;SDS011;3894;49.700;10.770;2023-04-21T02:58:06;17.77;;;8.77;;
7703;SDS011;3894;49.700;10.770;2023-04-21T03:00:31;18.15;;;8.45;;
7703;SDS011;3894;49.700;10.770;2023-04-21T03:02:57;22.35;;;9.23;;
7703;SDS011;3894;49.700;10.770;2023-04-21T03:05:23;21.27;;;8.45;;
7703;SDS011;3894;49.700;10.770;2023-04-21T03:07:48;18.38;;;8.48;;
7703;SDS011;3894;49.700;10.770;2023-04-21T03:10:14;20.50;;;8.95;;
7703;SDS011;3894;49.700;10.770;2023-04-21T03:12:40;22.80;;;9.52;;
7703;SDS011;3894;49.700;10.770;2023-04-21T03:15:06;21.50;;;8.75;;
7703;SDS011;3894;49.700;10.770;2023-04-21T03:17:32;18.63;;;8.90;;
7703;SDS011;3894;49.700;10.770;2023-04-21T03:19:57;22.08;;;9.55;;
7703;SDS011;3894;49.700;10.770;2023-04-21T03:22:23;17.42;;;8.02;;
7703;SDS011;3894;49.700;10.770;2023-04-21T03:24:49;19.95;;;8.13;;
7703;SDS011;3894;49.700;10.770;2023-04-21T03:27:14;21.50;;;8.48;;
7703;SDS011;3894;49.700;10.770;2023-04-21T03:29:40;20.50;;;8.57;;
7703;SDS011;3894;49.700;10.770;2023-04-21T03:32:05;17.35;;;8.30;;
7703;SDS011;3894;49.700;10.770;2023-04-21T03:34:31;17.00;;;7.85;;
7703;SDS011;3894;49.700;10.770;2023-04-21T03:36:57;17.90;;;8.45;;
7703;SDS011;3894;49.700;10.770;2023-04-21T03:39:22;18.45;;;7.80;;
7703;SDS011;3894;49.700;10.770;2023-04-21T03:41:48;17.13;;;8.32;;
7703;SDS011;3894;49.700;10.770;2023-04-21T03:44:14;16.27;;;7.82;;
7703;SDS011;3894;49.700;10.770;2023-04-21T03:46:39;18.55;;;8.23;;
7703;SDS011;3894;49.700;10.770;2023-04-21T03:49:05;15.65;;;8.02;;
7703;SDS011;3894;49.700;10.770;2023-04-21T03:51:31;16.27;;;7.75;;
7703;SDS011;3894;49.700;10.770;2023-04-21T03:53:57;17.20;;;7.28;;
7703;SDS011;3894;49.700;10.770;2023-04-21T03:56:23;19.20;;;8.73;;
7703;SDS011;3894;49.700;10.770;2023-04-21T03:58:49;17.27;;;8.15;;
7703;SDS011;3894;49.700;10.770;2023-04-21T04:01:15;23.00;;;9.80;;
7703;SDS011;3894;49.700;10.770;2023-04-21T04:03:40;21.75;;;9.52;;
7703;SDS011;3894;49.700;10.770;2023-04-21T04:06:06;17.77;;;7.25;;
7703;SDS011;3894;49.700;10.770;2023-04-21T04:08:32;19.60;;;7.65;;
7703;SDS011;3894;49.700;10.770;2023-04-21T04:10:57;19.35;;;8.50;;
7703;SDS011;3894;49.700;10.770;2023-04-21T04:13:23;20.83;;;9.18;;
7703;SDS011;3894;49.700;10.770;2023-04-21T04:15:50;18.52;;;8.18;;
7703;SDS011;3894;49.700;10.770;2023-04-21T04:18:16;19.90;;;8.68;;
7703;SDS011;3894;49.700;10.770;2023-04-21T04:20:42;20.27;;;9.10;;
7703;SDS011;3894;49.700;10.770;2023-04-21T04:23:07;21.95;;;10.65;;
7703;SDS011;3894;49.700;10.770;2023-04-21T04:25:33;18.27;;;8.52;;
7703;SDS011;3894;49.700;10.770;2023-04-21T04:27:58;19.08;;;9.68;;
7703;SDS011;3894;49.700;10.770;2023-04-21T04:30:24;20.17;;;9.00;;
7703;SDS011;3894;49.700;10.770;2023-04-21T04:32:52;22.20;;;9.75;;
7703;SDS011;3894;49.700;10.770;2023-04-21T04:35:18;19.23;;;8.70;;
7703;SDS011;3894;49.700;10.770;2023-04-21T04:37:44;19.65;;;9.15;;
7703;SDS011;3894;49.700;10.770;2023-04-21T04:40:09;20.67;;;9.57;;
7703;SDS011;3894;49.700;10.770;2023-04-21T04:42:39;21.40;;;10.15;;
7703;SDS011;3894;49.700;10.770;2023-04-21T04:45:05;20.23;;;9.38;;
7703;SDS011;3894;49.700;10.770;2023-04-21T04:47:35;22.15;;;9.27;;
7703;SDS011;3894;49.700;10.770;2023-04-21T04:50:01;23.63;;;9.40;;
7703;SDS011;3894;49.700;10.770;2023-04-21T04:52:27;24.83;;;9.40;;
7703;SDS011;3894;49.700;10.770;2023-04-21T04:54:53;20.90;;;9.82;;
7703;SDS011;3894;49.700;10.770;2023-04-21T04:57:18;20.95;;;9.68;;
7703;SDS011;3894;49.700;10.770;2023-04-21T04:59:44;21.98;;;9.43;;
7703;SDS011;3894;49.700;10.770;2023-04-21T05:02:10;19.50;;;9.02;;
7703;SDS011;3894;49.700;10.770;2023-04-21T05:04:36;26.95;;;11.27;;
7703;SDS011;3894;49.700;10.770;2023-04-21T05:07:02;24.73;;;11.25;;
7703;SDS011;3894;49.700;10.770;2023-04-21T05:09:30;22.23;;;9.10;;
7703;SDS011;3894;49.700;10.770;2023-04-21T05:11:55;17.90;;;8.68;;
7703;SDS011;3894;49.700;10.770;2023-04-21T05:14:21;19.52;;;8.63;;
7703;SDS011;3894;49.700;10.770;2023-04-21T05:16:47;22.48;;;10.55;;
7703;SDS011;3894;49.700;10.770;2023-04-21T05:19:12;20.55;;;9.55;;
7703;SDS011;3894;49.700;10.770;2023-04-21T05:21:38;21.67;;;10.10;;
7703;SDS011;3894;49.700;10.770;2023-04-21T05:24:03;20.55;;;9.73;;
7703;SDS011;3894;49.700;10.770;2023-04-21T05:26:29;20.15;;;9.32;;
7703;SDS011;3894;49.700;10.770;2023-04-21T05:28:55;18.70;;;8.85;;
7703;SDS011;3894;49.700;10.770;2023-04-21T05:31:23;21.33;;;10.18;;
7703;SDS011;3894;49.700;10.770;2023-04-21T05:33:49;23.58;;;9.45;;
7703;SDS011;3894;49.700;10.770;2023-04-21T05:36:15;22.90;;;10.10;;
7703;SDS011;3894;49.700;10.770;2023-04-21T05:38:40;20.60;;;9.75;;
7703;SDS011;3894;49.700;10.770;2023-04-21T05:41:06;20.20;;;10.23;;
7703;SDS011;3894;49.700;10.770;2023-04-21T05:43:32;16.85;;;8.25;;
7703;SDS011;3894;49.700;10.770;2023-04-21T05:45:58;20.10;;;9.32;;
7703;SDS011;3894;49.700;10.770;2023-04-21T05:48:25;21.27;;;8.98;;
7703;SDS011;3894;49.700;10.770;2023-04-21T05:50:51;18.05;;;8.95;;
7703;SDS011;3894;49.700;10.770;2023-04-21T05:53:16;21.63;;;8.63;;
7703;SDS011;3894;49.700;10.770;2023-04-21T05:55:42;20.45;;;8.25;;
7703;SDS011;3894;49.700;10.770;2023-04-21T05:58:07;19.25;;;9.13;;
7703;SDS011;3894;49.700;10.770;2023-04-21T06:00:33;19.00;;;8.68;;
7703;SDS011;3894;49.700;10.770;2023-04-21T06:02:58;17.27;;;8.57;;
7703;SDS011;3894;49.700;10.770;2023-04-21T06:05:24;21.02;;;8.98;;
7703;SDS011;3894;49.700;10.770;2023-04-21T06:07:50;18.30;;;8.60;;
7703;SDS011;3894;49.700;10.770;2023-04-21T06:10:16;21.60;;;9.20;;
7703;SDS011;3894;49.700;10.770;2023-04-21T06:12:42;20.60;;;9.52;;
7703;SDS011;3894;49.700;10.770;2023-04-21T06:15:07;23.38;;;9.80;;
7703;SDS011;3894;49.700;10.770;2023-04-21T06:17:33;20.48;;;9.50;;
7703;SDS011;3894;49.700;10.770;2023-04-21T06:19:59;20.73;;;9.55;;
7703;SDS011;3894;49.700;10.770;2023-04-21T06:22:25;24.23;;;9.55;;
7703;SDS011;3894;49.700;10.770;2023-04-21T06:24:51;21.77;;;9.30;;
7703;SDS011;3894;49.700;10.770;2023-04-21T06:27:17;21.52;;;9.43;;
7703;SDS011;3894;49.700;10.770;2023-04-21T06:29:43;24.02;;;10.40;;
7703;SDS011;3894;49.700;10.770;2023-04-21T06:32:11;23.85;;;11.10;;
7703;SDS011;3894;49.700;10.770;2023-04-21T06:34:37;21.67;;;9.70;;
7703;SDS011;3894;49.700;10.770;2023-04-21T06:37:03;22.50;;;9.40;;
7703;SDS011;3894;49.700;10.770;2023-04-21T06:39:28;22.55;;;10.13;;
7703;SDS011;3894;49.700;10.770;2023-04-21T06:41:55;21.08;;;10.13;;
7703;SDS011;3894;49.700;10.770;2023-04-21T06:44:22;23.10;;;9.93;;
7703;SDS011;3894;49.700;10.770;2023-04-21T06:46:47;20.08;;;9.68;;
7703;SDS011;3894;49.700;10.770;2023-04-21T06:49:13;22.88;;;10.48;;
7703;SDS011;3894;49.700;10.770;2023-04-21T06:51:38;25.25;;;9.98;;
7703;SDS011;3894;49.700;10.770;2023-04-21T06:54:04;21.38;;;10.02;;
7703;SDS011;3894;49.700;10.770;2023-04-21T06:56:30;20.67;;;9.52;;
7703;SDS011;3894;49.700;10.770;2023-04-21T06:58:55;21.50;;;8.90;;
7703;SDS011;3894;49.700;10.770;2023-04-21T07:01:21;18.55;;;8.43;;
7703;SDS011;3894;49.700;10.770;2023-04-21T07:03:49;19.63;;;8.90;;
7703;SDS011;3894;49.700;10.770;2023-04-21T07:06:15;19.27;;;8.90;;
7703;SDS011;3894;49.700;10.770;2023-04-21T07:08:41;21.20;;;9.10;;
7703;SDS011;3894;49.700;10.770;2023-04-21T07:11:07;19.40;;;8.77;;
7703;SDS011;3894;49.700;10.770;2023-04-21T07:13:32;19.23;;;7.78;;
7703;SDS011;3894;49.700;10.770;2023-04-21T07:15:58;19.80;;;8.13;;
7703;SDS011;3894;49.700;10.770;2023-04-21T07:18:24;17.30;;;7.70;;
7703;SDS011;3894;49.700;10.770;2023-04-21T07:20:49;14.77;;;7.60;;
7703;SDS011;3894;49.700;10.770;2023-04-21T07:23:15;18.48;;;7.75;;
7703;SDS011;3894;49.700;10.770;2023-04-21T07:25:41;18.80;;;7.82;;
7703;SDS011;3894;49.700;10.770;2023-04-21T07:28:06;17.90;;;8.57;;
7703;SDS011;3894;49.700;10.770;2023-04-21T07:30:32;16.02;;;7.90;;
7703;SDS011;3894;49.700;10.770;2023-04-21T07:32:58;18.38;;;7.95;;
7703;SDS011;3894;49.700;10.770;2023-04-21T07:35:23;19.48;;;8.40;;
7703;SDS011;3894;49.700;10.770;2023-04-21T07:37:49;14.90;;;7.60;;
7703;SDS011;3894;49.700;10.770;2023-04-21T07:40:15;17.08;;;7.78;;
7703;SDS011;3894;49.700;10.770;2023-04-21T07:42:41;15.48;;;7.97;;
7703;SDS011;3894;49.700;10.770;2023-04-21T07:45:06;14.88;;;6.88;;
7703;SDS011;3894;49.700;10.770;2023-04-21T07:47:32;13.52;;;7.28;;
7703;SDS011;3894;49.700;10.770;2023-04-21T07:49:58;14.80;;;6.88;;
7703;SDS011;3894;49.700;10.770;2023-04-21T07:52:24;14.50;;;7.05;;
7703;SDS011;3894;49.700;10.770;2023-04-21T07:54:50;15.80;;;7.57;;
7703;SDS011;3894;49.700;10.770;2023-04-21T07:57:15;15.40;;;6.95;;
7703;SDS011;3894;49.700;10.770;2023-04-21T07:59:41;14.35;;;6.50;;
7703;SDS011;3894;49.700;10.770;2023-04-21T08:02:07;15.82;;;8.02;;
7703;SDS011;3894;49.700;10.770;2023-04-21T08:04:33;12.88;;;5.93;;
7703;SDS011;3894;49.700;10.770;2023-04-21T08:06:59;14.65;;;6.60;;
7703;SDS011;3894;49.700;10.770;2023-04-21T08:09:25;14.82;;;6.38;;
7703;SDS011;3894;49.700;10.770;2023-04-21T08:11:50;14.73;;;7.25;;
7703;SDS011;3894;49.700;10.770;2023-04-21T08:14:16;14.63;;;6.85;;
7703;SDS011;3894;49.700;10.770;2023-04-21T08:16:42;14.93;;;6.75;;
7703;SDS011;3894;49.700;10.770;2023-04-21T08:19:08;13.07;;;6.05;;
7703;SDS011;3894;49.700;10.770;2023-04-21T08:21:34;13.80;;;5.93;;
7703;SDS011;3894;49.700;10.770;2023-04-21T08:24:00;12.45;;;5.97;;
7703;SDS011;3894;49.700;10.770;2023-04-21T08:26:26;12.63;;;6.88;;
7703;SDS011;3894;49.700;10.770;2023-04-21T08:28:54;14.63;;;6.68;;
7703;SDS011;3894;49.700;10.770;2023-04-21T08:31:20;14.18;;;6.45;;
7703;SDS011;3894;49.700;10.770;2023-04-21T08:33:46;15.93;;;6.43;;
7703;SDS011;3894;49.700;10.770;2023-04-21T08:36:11;13.23;;;6.32;;
7703;SDS011;3894;49.700;10.770;2023-04-21T08:38:37;14.13;;;6.10;;
7703;SDS011;3894;49.700;10.770;2023-04-21T08:41:03;13.93;;;6.25;;
7703;SDS011;3894;49.700;10.770;2023-04-21T08:43:29;14.65;;;7.30;;
7703;SDS011;3894;49.700;10.770;2023-04-21T08:45:55;10.63;;;5.10;;
7703;SDS011;3894;49.700;10.770;2023-04-21T08:48:21;11.20;;;4.43;;
7703;SDS011;3894;49.700;10.770;2023-04-21T08:50:49;9.25;;;5.13;;
7703;SDS011;3894;49.700;10.770;2023-04-21T08:53:15;12.20;;;5.50;;
7703;SDS011;3894;49.700;10.770;2023-04-21T08:55:41;10.02;;;5.05;;
7703;SDS011;3894;49.700;10.770;2023-04-21T08:58:08;12.65;;;6.40;;
7703;SDS011;3894;49.700;10.770;2023-04-21T09:00:37;11.73;;;4.93;;
7703;SDS011;3894;49.700;10.770;2023-04-21T09:03:03;10.65;;;4.78;;
7703;SDS011;3894;49.700;10.770;2023-04-21T09:05:32;14.20;;;5.47;;
7703;SDS011;3894;49.700;10.770;2023-04-21T09:08:11;9.93;;;4.85;;
7703;SDS011;3894;49.700;10.770;2023-04-21T09:10:42;8.63;;;4.32;;
7703;SDS011;3894;49.700;10.770;2023-04-21T09:13:12;12.13;;;4.63;;
7703;SDS011;3894;49.700;10.770;2023-04-21T09:15:42;10.88;;;4.50;;
7703;SDS011;3894;49.700;10.770;2023-04-21T09:18:13;9.52;;;4.82;;
7703;SDS011;3894;49.700;10.770;2023-04-21T09:20:44;10.02;;;5.07;;
7703;SDS011;3894;49.700;10.770;2023-04-21T09:23:11;10.82;;;4.70;;
7703;SDS011;3894;49.700;10.770;2023-04-21T09:25:37;9.25;;;4.35;;
7703;SDS011;3894;49.700;10.770;2023-04-21T09:28:11;9.32;;;4.38;;
7703;SDS011;3894;49.700;10.770;2023-04-21T09:30:39;9.05;;;4.50;;
7703;SDS011;3894;49.700;10.770;2023-04-21T09:33:06;12.02;;;4.47;;
7703;SDS011;3894;49.700;10.770;2023-04-21T09:35:33;9.02;;;4.68;;
7703;SDS011;3894;49.700;10.770;2023-04-21T09:38:09;10.13;;;4.95;;
7703;SDS011;3894;49.700;10.770;2023-04-21T09:40:36;9.50;;;4.10;;
7703;SDS011;3894;49.700;10.770;2023-04-21T09:43:01;9.23;;;3.80;;
7703;SDS011;3894;49.700;10.770;2023-04-21T09:45:27;7.72;;;4.03;;
7703;SDS011;3894;49.700;10.770;2023-04-21T09:47:57;9.32;;;4.00;;
7703;SDS011;3894;49.700;10.770;2023-04-21T09:50:27;8.52;;;3.83;;
7703;SDS011;3894;49.700;10.770;2023-04-21T09:52:54;8.00;;;4.20;;
7703;SDS011;3894;49.700;10.770;2023-04-21T09:55:25;10.55;;;4.20;;
7703;SDS011;3894;49.700;10.770;2023-04-21T09:57:59;8.82;;;4.20;;
7703;SDS011;3894;49.700;10.770;2023-04-21T10:00:29;9.38;;;3.75;;
7703;SDS011;3894;49.700;10.770;2023-04-21T10:02:56;8.18;;;3.72;;
7703;SDS011;3894;49.700;10.770;2023-04-21T10:05:24;8.82;;;3.40;;
7703;SDS011;3894;49.700;10.770;2023-04-21T10:07:50;7.60;;;3.80;;
7703;SDS011;3894;49.700;10.770;2023-04-21T10:10:26;6.40;;;2.80;;
7703;SDS011;3894;49.700;10.770;2023-04-21T10:12:54;7.57;;;3.08;;
7703;SDS011;3894;49.700;10.770;2023-04-21T10:15:30;7.78;;;3.58;;
7703;SDS011;3894;49.700;10.770;2023-04-21T10:20:49;6.45;;;2.80;;
7703;SDS011;3894;49.700;10.770;2023-04-21T10:26:01;8.50;;;3.67;;
7703;SDS011;3894;49.700;10.770;2023-04-21T10:31:33;8.02;;;3.50;;
7703;SDS011;3894;49.700;10.770;2023-04-21T10:44:44;6.30;;;2.85;;
7703;SDS011;3894;49.700;10.770;2023-04-21T10:47:41;6.38;;;2.78;;
7703;SDS011;3894;49.700;10.770;2023-04-21T10:50:16;7.45;;;2.90;;
7703;SDS011;3894;49.700;10.770;2023-04-21T10:52:53;6.95;;;3.08;;
7703;SDS011;3894;49.700;10.770;2023-04-21T10:55:20;7.53;;;3.28;;
7703;SDS011;3894;49.700;10.770;2023-04-21T10:57:49;5.97;;;2.80;;
7703;SDS011;3894;49.700;10.770;2023-04-21T11:00:16;6.07;;;3.08;;
7703;SDS011;3894;49.700;10.770;2023-04-21T11:03:00;5.85;;;2.50;;
7703;SDS011;3894;49.700;10.770;2023-04-21T11:05:37;6.25;;;2.65;;
7703;SDS011;3894;49.700;10.770;2023-04-21T11:08:08;6.15;;;2.45;;
7703;SDS011;3894;49.700;10.770;2023-04-21T11:13:15;6.13;;;2.53;;
7703;SDS011;3894;49.700;10.770;2023-04-21T11:15:41;6.40;;;2.70;;
7703;SDS011;3894;49.700;10.770;2023-04-21T11:18:06;7.10;;;3.20;;
7703;SDS011;3894;49.700;10.770;2023-04-21T11:20:33;9.05;;;3.50;;
7703;SDS011;3894;49.700;10.770;2023-04-21T11:23:03;7.18;;;2.60;;
7703;SDS011;3894;49.700;10.770;2023-04-21T11:25:29;5.07;;;2.40;;
7703;SDS011;3894;49.700;10.770;2023-04-21T11:27:55;6.32;;;3.03;;
7703;SDS011;3894;49.700;10.770;2023-04-21T11:30:29;7.68;;;2.95;;
7703;SDS011;3894;49.700;10.770;2023-04-21T11:32:58;6.05;;;2.75;;
7703;SDS011;3894;49.700;10.770;2023-04-21T11:35:24;6.82;;;2.58;;
7703;SDS011;3894;49.700;10.770;2023-04-21T11:37:49;5.75;;;2.95;;
7703;SDS011;3894;49.700;10.770;2023-04-21T11:40:18;6.35;;;2.38;;
7703;SDS011;3894;49.700;10.770;2023-04-21T11:42:44;6.38;;;2.25;;
7703;SDS011;3894;49.700;10.770;2023-04-21T11:45:19;6.25;;;2.50;;
7703;SDS011;3894;49.700;10.770;2023-04-21T11:47:44;5.60;;;2.25;;
7703;SDS011;3894;49.700;10.770;2023-04-21T11:50:16;5.18;;;2.22;;
7703;SDS011;3894;49.700;10.770;2023-04-21T11:52:56;6.10;;;2.30;;
7703;SDS011;3894;49.700;10.770;2023-04-21T11:55:21;6.10;;;2.88;;
7703;SDS011;3894;49.700;10.770;2023-04-21T11:57:48;5.05;;;1.95;;
7703;SDS011;3894;49.700;10.770;2023-04-21T12:00:15;5.57;;;2.22;;
7703;SDS011;3894;49.700;10.770;2023-04-21T12:02:41;4.95;;;2.08;;
7703;SDS011;3894;49.700;10.770;2023-04-21T12:05:11;7.78;;;2.15;;
7703;SDS011;3894;49.700;10.770;2023-04-21T12:07:38;5.15;;;1.85;;
7703;SDS011;3894;49.700;10.770;2023-04-21T12:12:40;5.18;;;1.90;;
7703;SDS011;3894;49.700;10.770;2023-04-21T12:15:06;6.50;;;2.10;;
7703;SDS011;3894;49.700;10.770;2023-04-21T12:17:35;4.82;;;1.83;;
7703;SDS011;3894;49.700;10.770;2023-04-21T12:20:07;5.75;;;2.72;;
7703;SDS011;3894;49.700;10.770;2023-04-21T12:22:33;7.82;;;2.28;;
7703;SDS011;3894;49.700;10.770;2023-04-21T12:24:59;5.60;;;1.80;;
7703;SDS011;3894;49.700;10.770;2023-04-21T12:27:25;5.88;;;2.38;;
7703;SDS011;3894;49.700;10.770;2023-04-21T12:29:51;5.47;;;2.45;;
7703;SDS011;3894;49.700;10.770;2023-04-21T12:32:17;6.65;;;2.35;;
7703;SDS011;3894;49.700;10.770;2023-04-21T12:34:42;5.85;;;2.40;;
7703;SDS011;3894;49.700;10.770;2023-04-21T12:37:08;5.85;;;2.35;;
7703;SDS011;3894;49.700;10.770;2023-04-21T12:39:34;5.57;;;1.88;;
7703;SDS011;3894;49.700;10.770;2023-04-21T12:42:00;5.53;;;2.40;;
7703;SDS011;3894;49.700;10.770;2023-04-21T12:44:26;5.97;;;2.42;;
7703;SDS011;3894;49.700;10.770;2023-04-21T12:46:52;5.43;;;2.45;;
7703;SDS011;3894;49.700;10.770;2023-04-21T12:49:17;5.10;;;2.00;;
7703;SDS011;3894;49.700;10.770;2023-04-21T12:51:44;4.78;;;2.00;;
7703;SDS011;3894;49.700;10.770;2023-04-21T12:54:10;7.50;;;2.25;;
7703;SDS011;3894;49.700;10.770;2023-04-21T12:56:37;4.97;;;1.90;;
7703;SDS011;3894;49.700;10.770;2023-04-21T12:59:06;6.45;;;2.30;;
7703;SDS011;3894;49.700;10.770;2023-04-21T13:01:33;4.32;;;1.85;;
7703;SDS011;3894;49.700;10.770;2023-04-21T13:04:00;5.25;;;2.22;;
7703;SDS011;3894;49.700;10.770;2023-04-21T13:06:26;4.78;;;1.65;;
7703;SDS011;3894;49.700;10.770;2023-04-21T13:08:52;4.32;;;1.63;;
7703;SDS011;3894;49.700;10.770;2023-04-21T13:11:18;6.70;;;2.20;;
7703;SDS011;3894;49.700;10.770;2023-04-21T13:13:43;4.68;;;1.70;;
7703;SDS011;3894;49.700;10.770;2023-04-21T13:16:09;4.70;;;2.33;;
7703;SDS011;3894;49.700;10.770;2023-04-21T13:18:34;5.60;;;1.85;;
7703;SDS011;3894;49.700;10.770;2023-04-21T13:21:01;6.57;;;2.47;;
7703;SDS011;3894;49.700;10.770;2023-04-21T13:23:27;6.95;;;1.90;;
7703;SDS011;3894;49.700;10.770;2023-04-21T13:25:53;5.13;;;1.90;;
7703;SDS011;3894;49.700;10.770;2023-04-21T13:28:19;5.85;;;1.80;;
7703;SDS011;3894;49.700;10.770;2023-04-21T13:30:45;5.82;;;2.15;;
7703;SDS011;3894;49.700;10.770;2023-04-21T13:33:11;4.57;;;1.67;;
7703;SDS011;3894;49.700;10.770;2023-04-21T13:35:37;6.63;;;2.40;;
7703;SDS011;3894;49.700;10.770;2023-04-21T13:38:03;4.70;;;1.65;;
7703;SDS011;3894;49.700;10.770;2023-04-21T13:40:29;6.15;;;1.80;;
7703;SDS011;3894;49.700;10.770;2023-04-21T13:42:55;4.55;;;1.40;;
7703;SDS011;3894;49.700;10.770;2023-04-21T13:45:22;4.68;;;1.77;;
7703;SDS011;3894;49.700;10.770;2023-04-21T13:47:48;5.65;;;1.95;;
7703;SDS011;3894;49.700;10.770;2023-04-21T13:50:15;5.05;;;2.10;;
7703;SDS011;3894;49.700;10.770;2023-04-21T13:52:41;4.40;;;1.60;;
7703;SDS011;3894;49.700;10.770;2023-04-21T13:55:07;4.57;;;1.90;;
7703;SDS011;3894;49.700;10.770;2023-04-21T13:57:32;5.57;;;2.05;;
7703;SDS011;3894;49.700;10.770;2023-04-21T13:59:58;4.55;;;1.75;;
7703;SDS011;3894;49.700;10.770;2023-04-21T14:02:24;4.38;;;1.67;;
7703;SDS011;3894;49.700;10.770;2023-04-21T14:04:50;5.10;;;2.00;;
7703;SDS011;3894;49.700;10.770;2023-04-21T14:07:17;5.05;;;1.90;;
7703;SDS011;3894;49.700;10.770;2023-04-21T14:09:44;4.88;;;1.73;;
7703;SDS011;3894;49.700;10.770;2023-04-21T14:12:10;5.35;;;1.88;;
7703;SDS011;3894;49.700;10.770;2023-04-21T14:14:36;4.68;;;1.73;;
7703;SDS011;3894;49.700;10.770;2023-04-21T14:17:01;5.22;;;1.80;;
7703;SDS011;3894;49.700;10.770;2023-04-21T14:19:34;5.72;;;2.17;;
7703;SDS011;3894;49.700;10.770;2023-04-21T14:22:00;4.75;;;2.08;;
7703;SDS011;3894;49.700;10.770;2023-04-21T14:24:26;4.03;;;1.35;;
7703;SDS011;3894;49.700;10.770;2023-04-21T14:26:54;4.45;;;1.70;;
7703;SDS011;3894;49.700;10.770;2023-04-21T14:29:21;5.18;;;1.60;;
7703;SDS011;3894;49.700;10.770;2023-04-21T14:31:46;5.03;;;1.52;;
7703;SDS011;3894;49.700;10.770;2023-04-21T14:34:12;5.10;;;1.70;;
7703;SDS011;3894;49.700;10.770;2023-04-21T14:36:38;6.38;;;1.90;;
7703;SDS011;3894;49.700;10.770;2023-04-21T14:39:03;6.40;;;1.90;;
7703;SDS011;3894;49.700;10.770;2023-04-21T14:41:29;6.30;;;1.98;;
7703;SDS011;3894;49.700;10.770;2023-04-21T14:43:55;5.55;;;1.73;;
7703;SDS011;3894;49.700;10.770;2023-04-21T14:46:21;4.78;;;1.75;;
7703;SDS011;3894;49.700;10.770;2023-04-21T14:48:47;5.00;;;1.40;;
7703;SDS011;3894;49.700;10.770;2023-04-21T14:51:13;4.85;;;1.77;;
7703;SDS011;3894;49.700;10.770;2023-04-21T14:53:39;5.65;;;1.73;;
7703;SDS011;3894;49.700;10.770;2023-04-21T14:56:04;5.40;;;1.75;;
7703;SDS011;3894;49.700;10.770;2023-04-21T14:58:30;4.45;;;1.73;;
7703;SDS011;3894;49.700;10.770;2023-04-21T15:00:56;6.18;;;2.05;;
7703;SDS011;3894;49.700;10.770;2023-04-21T15:03:22;5.15;;;1.75;;
7703;SDS011;3894;49.700;10.770;2023-04-21T15:05:47;5.63;;;2.15;;
7703;SDS011;3894;49.700;10.770;2023-04-21T15:08:13;5.65;;;2.00;;
7703;SDS011;3894;49.700;10.770;2023-04-21T15:10:42;4.93;;;1.80;;
7703;SDS011;3894;49.700;10.770;2023-04-21T15:13:08;5.20;;;1.48;;
7703;SDS011;3894;49.700;10.770;2023-04-21T15:15:34;5.53;;;1.63;;
7703;SDS011;3894;49.700;10.770;2023-04-21T15:18:00;5.47;;;1.88;;